• Join FlightAware (Why Join?)
  • Login
  • US Flag 
11:07PM EDT


 

Airport Tracker/Info


-or-


 

Live Flight TrackerFlight Track Log ✈ SWA2278 ✈ 09-Apr-2013 ✈ KBNA - KBWI

Flight Track Log - Related Links

Times and Time Zones

All times are in EDT time to prevent confusion due to time zone crossing. See the SWA2278 flight status page for this flight to view local times or setup timezone preferences in your user account.

Time Position Orientation Groundspeed Altitude Reporting Facility
EDT Latitude Longitude Course Direction KTS MPH feet Rate Location/Type
02:01PM 36.0833 -86.6833 186° South 167 192 2,100  Level Nashville TRACON
02:02PM 36.0500 -86.6333 129° Southeast 238 274 3,900 1,800 Climbing Nashville TRACON
02:03PM 36.0833 -86.5167 70° East 319 367 5,900 1,920 Climbing Nashville TRACON
02:04PM 36.0914 -86.4683 78° East 315 362 7,200 3,420 Climbing Memphis Center
02:05PM 36.1194 -86.3692 71° East 329 379 11,000 3,420 Climbing Memphis Center
02:06PM 36.1475 -86.2678 71° East 318 366 14,100 2,400 Climbing Memphis Center
02:07PM 36.1939 -86.1572 63° Northeast 324 373 15,800 2,160 Climbing Memphis Center
02:08PM 36.2589 -86.0536 52° Northeast 362 417 18,400 2,160 Climbing Memphis Center
02:10PM 36.3653 -85.8703 54° Northeast 408 470 21,600 1,980 Climbing Indianapolis Center
02:11PM 36.4267 -85.7328 61° Northeast 432 497 23,800 1,860 Climbing Indianapolis Center
02:12PM 36.4703 -85.5931 69° East 434 499 25,500 1,440 Climbing Indianapolis Center
02:13PM 36.5161 -85.4500 68° East 442 509 26,800 1,260 Climbing Indianapolis Center
02:14PM 36.5633 -85.3028 68° East 453 521 28,200 1,200 Climbing Indianapolis Center
02:15PM 36.6097 -85.1483 69° East 467 537 29,300 1,260 Climbing Indianapolis Center
02:16PM 36.6586 -84.9919 69° East 479 551 30,900 1,740 Climbing Indianapolis Center
02:17PM 36.7067 -84.8386 69° East 476 548 32,900 1,500 Climbing Indianapolis Center
02:18PM 36.7531 -84.6858 69° East 470 541 34,100 1,620 Climbing Indianapolis Center
02:19PM 36.8078 -84.5075 69° East 456 525 36,300 1,380 Climbing Indianapolis Center
02:20PM 36.8472 -84.3792 69° East 440 506 37,000 300 Climbing Indianapolis Center
02:21PM 36.8911 -84.2325 69° East 447 514 37,000  Level Indianapolis Center
02:22PM 36.9369 -84.0844 69° East 452 520 37,000  Level Indianapolis Center
02:23PM 36.9881 -83.9133 69° East 448 516 37,000  Level Indianapolis Center
02:24PM 37.0331 -83.7692 69° East 443 510 37,000  Level Indianapolis Center
02:25PM 37.0756 -83.6242 70° East 443 510 37,000  Level Indianapolis Center
02:26PM 37.1175 -83.4789 70° East 442 509 37,000  Level Indianapolis Center
02:27PM 37.1600 -83.3328 70° East 442 509 37,000  Level Indianapolis Center
02:28PM 37.2044 -83.1864 69° East 451 519 37,000  Level Indianapolis Center
02:29PM 37.2481 -83.0328 70° East 455 524 37,000  Level Indianapolis Center
02:30PM 37.2925 -82.8800 70° East 461 531 37,000  Level Indianapolis Center
02:31PM 37.3444 -82.7017 70° East 465 535 37,000  Level Indianapolis Center
02:32PM 37.3881 -82.5489 70° East 463 533 37,000  Level Indianapolis Center
02:33PM 37.4308 -82.3953 71° East 463 533 37,000  Level Indianapolis Center
02:34PM 37.4739 -82.2439 70° East 459 528 37,000  Level Indianapolis Center
02:35PM 37.5161 -82.0956 70° East 452 520 37,000  Level Indianapolis Center
02:36PM 37.5564 -81.9475 71° East 446 513 37,000  Level Indianapolis Center
02:37PM 37.5975 -81.8008 70° East 445 512 37,000  Level Indianapolis Center
02:38PM 37.6450 -81.6261 71° East 450 518 37,000  Level Indianapolis Center
02:39PM 37.6883 -81.4664 71° East 459 528 37,000  Level Indianapolis Center
02:40PM 37.7283 -81.3172 71° East 461 531 37,000  Level Indianapolis Center
02:41PM 37.7658 -81.1744 72° East 461 531 37,000  Level Washington Center
02:42PM 37.7919 -81.0161 78° East 461 531 37,000  Level Washington Center
02:43PM 37.8114 -80.8569 81° East 461 531 37,000  Level Washington Center
02:44PM 37.8289 -80.6978 82° East 461 531 37,000  Level Washington Center
02:45PM 37.8486 -80.5231 82° East 461 531 37,000  Level Washington Center
02:46PM 37.8758 -80.3694 77° East 456 525 37,000  Level Washington Center
02:47PM 37.9292 -80.2333 64° Northeast 430 495 37,000  Level Washington Center
02:48PM 37.9844 -80.0972 63° Northeast 430 495 37,000  Level Washington Center
02:49PM 38.0328 -79.9708 64° Northeast 435 501 37,000  Level Washington Center
02:50PM 38.0858 -79.8314 64° Northeast 435 501 37,000  Level Washington Center
02:51PM 38.1408 -79.6919 63° Northeast 435 501 37,000 -480 Level Washington Center
02:52PM 38.1936 -79.5494 65° Northeast 440 506 36,100 -1,800 Descending Washington Center
02:53PM 38.2481 -79.4122 63° Northeast 440 506 33,500 -2,940 Descending Washington Center
02:54PM 38.2950 -79.2428 71° East 450 518 30,300 -2,760 Descending Washington Center
02:55PM 38.3350 -79.0939 71° East 450 518 28,000 -1,200 Descending Washington Center
02:56PM 38.3703 -78.9497 73° East 438 504 28,000 -420 Level Washington Center
02:57PM 38.4033 -78.8108 73° East 438 504 27,200 -1,020 Descending Washington Center
02:58PM 38.4453 -78.6431 72° East 448 516 26,000 -1,080 Descending Washington Center
02:59PM 38.4819 -78.5064 71° East 448 516 25,100 -900 Descending Washington Center
03:00PM 38.5208 -78.3569 72° East 448 516 24,200 -1,020 Descending Washington Center
03:01PM 38.5600 -78.1964 73° East 433 498 23,100 -1,200 Descending Washington Center
03:02PM 38.5919 -78.0672 72° East 433 498 21,800 -1,800 Descending Washington Center
03:03PM 38.6281 -77.9197 73° East 404 465 19,500 -1,440 Descending Washington Center
03:04PM 38.6431 -77.7978 81° East 391 450 19,000 -300 Descending Washington Center
03:05PM 38.6539 -77.6467 85° East 386 444 19,000 -240 Level Washington Center
03:06PM 38.6667 -77.5833 75° East 402 463 18,700 -1,620 Descending Potomac TRACON
03:07PM 38.6667 -77.4333 90° East 389 448 16,700 -1,380 Descending Potomac TRACON
03:08PM 38.6667 -77.3000 90° East 371 427 16,000 -1,200 Descending Potomac TRACON
03:09PM 38.6833 -77.1667 81° East 372 428 14,300 -1,920 Descending Potomac TRACON
03:10PM 38.6833 -77.0500 90° East 367 422 12,200 -1,740 Descending Potomac TRACON
03:11PM 38.7000 -76.9333 80° East 356 410 11,000 -1,440 Descending Potomac TRACON
03:11PM 38.6983 -76.8553 92° East 358 412 10,100 -1,260 Descending Washington Center
03:12PM 38.7056 -76.7436 85° East 337 388 9,000 -1,320 Descending Washington Center
03:14PM 38.7667 -76.6000 61° Northeast 297 342 6,900 -1,260 Descending Potomac TRACON
03:15PM 38.8167 -76.5333 46° Northeast 280 322 6,000 -1,320 Descending Potomac TRACON
03:16PM 38.8833 -76.5333 360° North 260 299 4,300 -1,500 Descending Potomac TRACON
03:17PM 38.9500 -76.5500 349° North 248 285 3,100 -840 Descending Potomac TRACON
03:18PM 39.0167 -76.5667 349° North 239 275 2,700 -420 Descending Potomac TRACON
03:19PM 39.0667 -76.5833 345° North 225 259 2,400 -720 Descending Potomac TRACON
03:20PM 39.1167 -76.6167 333° Northwest 171 197 1,400 -900 Descending Potomac TRACON
03:21PM 39.1500 -76.6500 322° Northwest 138 159 600 -840 Descending Potomac TRACON
03:23PM 39.1667 -76.6667 339° North  Level FlightAware Approximate
03:30PM 39.1754 -76.6683 339° North  Level Estimated
03:31PM 39.1754 -76.6683 339° North  Level Estimated
03:32PM 39.1754 -76.6683 339° North  Level Estimated